createdAt,value
2017-10-17T00:00:11.932Z,0
2017-10-17T00:01:11.900Z,0
2017-10-17T00:02:11.874Z,0
2017-10-17T00:03:11.857Z,0
2017-10-17T00:04:11.841Z,0
2017-10-17T00:05:11.820Z,0
2017-10-17T00:06:11.821Z,0
2017-10-17T00:07:11.772Z,0
2017-10-17T00:08:11.749Z,0
2017-10-17T00:09:11.734Z,0
2017-10-17T00:10:11.386Z,0
2017-10-17T00:11:11.683Z,0
2017-10-17T00:12:11.673Z,0
2017-10-17T00:13:11.644Z,0
2017-10-17T00:14:11.297Z,0
2017-10-17T00:15:11.274Z,0
2017-10-17T00:16:11.573Z,0
2017-10-17T00:17:11.558Z,0
2017-10-17T00:18:11.543Z,0
2017-10-17T00:19:11.528Z,0
2017-10-17T00:20:11.492Z,0
2017-10-17T00:21:11.153Z,0
2017-10-17T00:22:11.450Z,0
2017-10-17T00:23:11.423Z,0
2017-10-17T00:24:11.408Z,0
2017-10-17T00:25:11.063Z,0
2017-10-17T00:26:11.369Z,0
2017-10-17T00:27:11.356Z,0
2017-10-17T00:28:11.322Z,0
2017-10-17T00:29:10.979Z,0
2017-10-17T00:30:11.276Z,0
2017-10-17T00:31:11.272Z,0
2017-10-17T00:32:11.235Z,0
2017-10-17T00:33:11.220Z,0
2017-10-17T00:34:11.229Z,0
2017-10-17T00:35:10.847Z,0
2017-10-17T00:36:10.831Z,0
2017-10-17T00:37:11.135Z,0
2017-10-17T00:38:11.106Z,0
2017-10-17T00:39:11.081Z,0
2017-10-17T00:40:11.081Z,0
2017-10-17T00:41:10.719Z,0
2017-10-17T00:42:11.023Z,0
2017-10-17T00:43:11.004Z,0
2017-10-17T00:44:10.666Z,0
2017-10-17T00:45:10.980Z,0
2017-10-17T00:46:10.628Z,0
2017-10-17T00:47:10.585Z,0
2017-10-17T00:48:10.912Z,0
2017-10-17T00:49:10.885Z,0
2017-10-17T00:50:10.893Z,0
2017-10-17T00:51:10.832Z,0
2017-10-17T00:52:10.805Z,0
2017-10-17T00:53:10.799Z,0
2017-10-17T00:54:10.766Z,0
2017-10-17T00:55:10.759Z,0
2017-10-17T00:56:10.722Z,0
2017-10-17T00:57:10.381Z,0
2017-10-17T00:58:10.679Z,0
2017-10-17T00:59:10.658Z,0
2017-10-17T01:00:10.647Z,0
2017-10-17T01:01:10.626Z,0
2017-10-17T01:02:10.605Z,0
2017-10-17T01:03:10.604Z,0
2017-10-17T01:04:10.585Z,0
2017-10-17T01:05:10.535Z,0
2017-10-17T01:06:10.512Z,0
2017-10-17T01:07:10.519Z,0
2017-10-17T01:08:10.477Z,0
2017-10-17T01:09:10.448Z,0
2017-10-17T01:10:10.114Z,0
2017-10-17T01:11:10.417Z,0
2017-10-17T01:12:10.391Z,0
2017-10-17T01:13:10.360Z,0
2017-10-17T01:14:10.029Z,0
2017-10-17T01:15:10.311Z,0
2017-10-17T01:16:09.992Z,0
2017-10-17T01:17:10.272Z,0
2017-10-17T01:18:10.267Z,0
2017-10-17T01:19:10.240Z,0
2017-10-17T01:20:10.214Z,0
2017-10-17T01:21:10.182Z,0
2017-10-17T01:22:10.182Z,0
2017-10-17T01:23:10.146Z,0
2017-10-17T01:24:10.136Z,0
2017-10-17T01:25:10.098Z,0
2017-10-17T01:26:10.092Z,0
2017-10-17T01:27:10.069Z,0
2017-10-17T01:28:10.045Z,0
2017-10-17T01:29:09.707Z,0
2017-10-17T01:30:09.994Z,0
2017-10-17T01:31:09.976Z,0
2017-10-17T01:32:09.967Z,0
2017-10-17T01:33:09.943Z,0
2017-10-17T01:34:09.915Z,0
2017-10-17T01:35:09.890Z,0
2017-10-17T01:36:09.882Z,0
2017-10-17T01:37:09.843Z,0
2017-10-17T01:38:09.825Z,0
2017-10-17T01:39:09.800Z,0
2017-10-17T01:40:09.782Z,0
2017-10-17T01:41:09.779Z,0
2017-10-17T01:42:09.768Z,0
2017-10-17T01:43:09.728Z,0
2017-10-17T01:44:09.709Z,0
2017-10-17T01:45:09.673Z,0
2017-10-17T01:46:09.333Z,0
2017-10-17T01:47:09.638Z,0
2017-10-17T01:48:09.614Z,0
2017-10-17T01:49:09.266Z,0
2017-10-17T01:50:09.585Z,0
2017-10-17T01:51:09.559Z,0
2017-10-17T01:52:09.523Z,0
2017-10-17T01:53:09.192Z,0
2017-10-17T01:54:09.164Z,0
2017-10-17T01:55:09.459Z,0
2017-10-17T01:56:09.435Z,0
2017-10-17T01:57:09.421Z,0
2017-10-17T01:58:09.402Z,0
2017-10-17T01:59:09.382Z,0
2017-10-17T02:00:09.350Z,0
2017-10-17T02:01:09.337Z,0
2017-10-17T02:02:09.318Z,0
2017-10-17T02:03:09.289Z,0
2017-10-17T02:04:09.274Z,0
2017-10-17T02:05:09.254Z,0
2017-10-17T02:06:09.225Z,0
2017-10-17T02:07:09.210Z,0
2017-10-17T02:08:09.182Z,0
2017-10-17T02:09:09.165Z,0
2017-10-17T02:10:09.135Z,0
2017-10-17T02:11:09.115Z,0
2017-10-17T02:12:09.096Z,0
2017-10-17T02:13:09.075Z,0
2017-10-17T02:14:08.747Z,0
2017-10-17T02:15:09.035Z,0
2017-10-17T02:16:09.009Z,0
2017-10-17T02:17:08.984Z,0
2017-10-17T02:18:08.965Z,0
2017-10-17T02:19:08.625Z,0
2017-10-17T02:20:08.931Z,0
2017-10-17T02:21:08.902Z,0
2017-10-17T02:22:08.886Z,0
2017-10-17T02:23:08.868Z,0
2017-10-17T02:24:08.516Z,0
2017-10-17T02:25:08.810Z,0
2017-10-17T02:26:08.796Z,0
2017-10-17T02:27:08.774Z,0
2017-10-17T02:28:08.755Z,0
2017-10-17T02:29:08.731Z,0
2017-10-17T02:30:08.709Z,0
2017-10-17T02:31:08.695Z,0
2017-10-17T02:32:08.667Z,0
2017-10-17T02:33:08.646Z,0
2017-10-17T02:34:08.620Z,0
2017-10-17T02:35:08.592Z,0
2017-10-17T02:36:08.596Z,0
2017-10-17T02:37:08.248Z,0
2017-10-17T02:38:08.546Z,0
2017-10-17T02:39:08.511Z,0
2017-10-17T02:40:08.496Z,0
2017-10-17T02:41:08.475Z,0
2017-10-17T02:42:08.141Z,0
2017-10-17T02:43:08.441Z,0
2017-10-17T02:44:08.413Z,0
2017-10-17T02:45:08.380Z,0
2017-10-17T02:46:08.364Z,0
2017-10-17T02:47:08.347Z,0
2017-10-17T02:48:08.327Z,0
2017-10-17T02:49:08.299Z,0
2017-10-17T02:50:08.277Z,0
2017-10-17T02:51:08.252Z,0
2017-10-17T02:52:08.232Z,0
2017-10-17T02:53:08.238Z,0
2017-10-17T02:54:08.197Z,0
2017-10-17T02:55:07.525Z,0
2017-10-17T02:56:08.137Z,0
2017-10-17T02:57:08.140Z,0
2017-10-17T02:58:08.099Z,0
2017-10-17T02:59:08.080Z,0
2017-10-17T03:00:08.070Z,0
2017-10-17T03:01:08.034Z,0
2017-10-17T03:02:08.017Z,0
2017-10-17T03:03:07.994Z,0
2017-10-17T03:04:07.983Z,0
2017-10-17T03:05:07.957Z,0
2017-10-17T03:06:07.944Z,0
2017-10-17T03:07:07.913Z,0
2017-10-17T03:08:07.887Z,0
2017-10-17T03:09:07.881Z,0
2017-10-17T03:10:07.545Z,0
2017-10-17T03:11:07.833Z,0
2017-10-17T03:12:07.803Z,0
2017-10-17T03:13:07.788Z,0
2017-10-17T03:14:07.750Z,0
2017-10-17T03:15:07.731Z,0
2017-10-17T03:16:07.707Z,0
2017-10-17T03:17:07.690Z,0
2017-10-17T03:18:07.667Z,0
2017-10-17T03:19:07.654Z,0
2017-10-17T03:20:07.621Z,0
2017-10-17T03:21:07.594Z,0
2017-10-17T03:22:07.578Z,0
2017-10-17T03:23:07.557Z,0
2017-10-17T03:24:07.560Z,0
2017-10-17T03:25:07.544Z,0
2017-10-17T03:26:07.501Z,0
2017-10-17T03:27:07.149Z,0
2017-10-17T03:28:07.450Z,0
2017-10-17T03:29:07.433Z,0
2017-10-17T03:30:07.420Z,0
2017-10-17T03:31:07.396Z,0
2017-10-17T03:32:07.371Z,0
2017-10-17T03:33:07.354Z,0
2017-10-17T03:34:07.320Z,0
2017-10-17T03:35:07.303Z,0
2017-10-17T03:36:07.284Z,0
2017-10-17T03:37:07.258Z,0
2017-10-17T03:38:07.238Z,0
2017-10-17T03:39:07.218Z,0
2017-10-17T03:40:07.191Z,0
2017-10-17T03:41:07.168Z,0
2017-10-17T03:42:07.146Z,0
2017-10-17T03:43:07.139Z,0
2017-10-17T03:44:07.112Z,0
2017-10-17T03:45:07.081Z,0
2017-10-17T03:46:07.064Z,0
2017-10-17T03:47:07.050Z,0
2017-10-17T03:48:07.041Z,0
2017-10-17T03:49:06.996Z,0
2017-10-17T03:50:06.979Z,0
2017-10-17T03:51:06.957Z,0
2017-10-17T03:52:06.927Z,0
2017-10-17T03:53:06.916Z,0
2017-10-17T03:54:06.884Z,0
2017-10-17T03:55:06.921Z,0
2017-10-17T03:56:06.839Z,0
2017-10-17T03:57:06.822Z,0
2017-10-17T03:58:06.851Z,0
2017-10-17T03:59:06.832Z,0
2017-10-17T04:00:06.757Z,0
2017-10-17T04:01:06.737Z,0
2017-10-17T04:02:06.720Z,0
2017-10-17T04:03:06.697Z,0
2017-10-17T04:04:06.709Z,0
2017-10-17T04:05:06.647Z,0
2017-10-17T04:06:06.636Z,0
2017-10-17T04:07:06.640Z,0
2017-10-17T04:08:06.600Z,0
2017-10-17T04:09:06.576Z,0
2017-10-17T04:10:06.553Z,0
2017-10-17T04:11:06.531Z,0
2017-10-17T04:12:06.508Z,0
2017-10-17T04:13:06.473Z,0
2017-10-17T04:14:06.447Z,0
2017-10-17T04:15:06.425Z,0
2017-10-17T04:16:06.421Z,0
2017-10-17T04:17:06.077Z,0
2017-10-17T04:18:06.359Z,0
2017-10-17T04:19:06.335Z,0
2017-10-17T04:20:06.364Z,0
2017-10-17T04:21:06.297Z,0
2017-10-17T04:22:06.301Z,0
2017-10-17T04:23:05.939Z,0
2017-10-17T04:24:05.961Z,0
2017-10-17T04:25:06.220Z,0
2017-10-17T04:26:06.189Z,0
2017-10-17T04:27:06.175Z,0
2017-10-17T04:28:06.143Z,0
2017-10-17T04:29:06.133Z,0
2017-10-17T04:30:06.110Z,0
2017-10-17T04:31:06.102Z,0
2017-10-17T04:32:06.077Z,0
2017-10-17T04:33:06.040Z,0
2017-10-17T04:34:06.010Z,0
2017-10-17T04:35:05.996Z,0
2017-10-17T04:36:05.979Z,0
2017-10-17T04:37:05.957Z,0
2017-10-17T04:38:05.923Z,0
2017-10-17T04:39:05.907Z,0
2017-10-17T04:40:05.947Z,0
2017-10-17T04:41:05.865Z,0
2017-10-17T04:42:05.865Z,0
2017-10-17T04:43:05.813Z,0
2017-10-17T04:44:05.791Z,0
2017-10-17T04:45:05.784Z,0
2017-10-17T04:46:05.773Z,0
2017-10-17T04:47:05.732Z,0
2017-10-17T04:48:05.726Z,0
2017-10-17T04:49:05.746Z,0
2017-10-17T04:50:05.723Z,0
2017-10-17T04:51:05.646Z,0
2017-10-17T04:52:05.301Z,0
2017-10-17T04:53:05.618Z,0
2017-10-17T04:54:05.592Z,0
2017-10-17T04:55:05.553Z,0
2017-10-17T04:56:05.548Z,0
2017-10-17T04:57:05.569Z,0
2017-10-17T04:58:05.188Z,0
2017-10-17T04:59:05.477Z,0
2017-10-17T05:00:05.447Z,0
2017-10-17T05:01:05.434Z,0
2017-10-17T05:02:05.418Z,0
2017-10-17T05:03:05.076Z,0
2017-10-17T05:04:05.368Z,0
2017-10-17T05:05:05.350Z,0
2017-10-17T05:06:04.994Z,0
2017-10-17T05:07:05.333Z,0
2017-10-17T05:08:05.265Z,0
2017-10-17T05:09:05.260Z,0
2017-10-17T05:10:05.235Z,0
2017-10-17T05:11:05.198Z,0
2017-10-17T05:12:04.875Z,0
2017-10-17T05:13:04.848Z,0
2017-10-17T05:14:05.142Z,0
2017-10-17T05:15:05.125Z,0
2017-10-17T05:16:05.104Z,0
2017-10-17T05:17:05.088Z,0
2017-10-17T05:18:05.106Z,0
2017-10-17T05:19:04.765Z,0
2017-10-17T05:20:04.695Z,0
2017-10-17T05:21:05.040Z,0
2017-10-17T05:22:04.979Z,0
2017-10-17T05:23:04.630Z,0
2017-10-17T05:24:04.932Z,0
2017-10-17T05:25:04.911Z,0
2017-10-17T05:26:04.880Z,0
2017-10-17T05:27:04.906Z,0
2017-10-17T05:28:04.845Z,0
2017-10-17T05:29:04.874Z,0
2017-10-17T05:30:04.792Z,0
2017-10-17T05:31:04.771Z,0
2017-10-17T05:32:04.749Z,0
2017-10-17T05:33:04.418Z,0
2017-10-17T05:34:04.712Z,0
2017-10-17T05:35:04.693Z,0
2017-10-17T05:36:04.692Z,0
2017-10-17T05:37:04.641Z,0
2017-10-17T05:38:04.639Z,0
2017-10-17T05:39:04.615Z,0
2017-10-17T05:40:04.595Z,0
2017-10-17T05:41:04.559Z,0
2017-10-17T05:42:04.544Z,0
2017-10-17T05:43:04.507Z,0
2017-10-17T05:44:04.488Z,0
2017-10-17T05:45:04.479Z,0
2017-10-17T05:46:04.455Z,0
2017-10-17T05:47:04.418Z,0
2017-10-17T05:48:04.091Z,0
2017-10-17T05:49:04.384Z,0
2017-10-17T05:50:04.372Z,0
2017-10-17T05:51:04.335Z,0
2017-10-17T05:52:04.312Z,0
2017-10-17T05:53:04.297Z,0
2017-10-17T05:54:04.268Z,0
2017-10-17T05:55:04.248Z,5
2017-10-17T05:56:04.240Z,5
2017-10-17T05:57:04.220Z,5
2017-10-17T05:58:04.192Z,5
2017-10-17T05:59:03.840Z,5
2017-10-17T06:00:04.150Z,5
2017-10-17T06:01:04.110Z,5
2017-10-17T06:02:04.098Z,5
2017-10-17T06:03:04.079Z,5
2017-10-17T06:04:03.742Z,5
2017-10-17T06:05:04.030Z,5
2017-10-17T06:06:04.008Z,5
2017-10-17T06:07:03.987Z,10
2017-10-17T06:08:03.983Z,10
2017-10-17T06:09:03.631Z,10
2017-10-17T06:10:03.600Z,10
2017-10-17T06:11:03.901Z,10
2017-10-17T06:12:03.874Z,10
2017-10-17T06:13:03.863Z,15
2017-10-17T06:14:03.840Z,15
2017-10-17T06:15:03.823Z,15
2017-10-17T06:16:03.472Z,15
2017-10-17T06:17:03.774Z,15
2017-10-17T06:18:03.757Z,15
2017-10-17T06:19:03.406Z,20
2017-10-17T06:20:03.714Z,20
2017-10-17T06:21:03.676Z,20
2017-10-17T06:22:03.666Z,20
2017-10-17T06:23:03.333Z,20
2017-10-17T06:24:03.615Z,20
2017-10-17T06:25:03.608Z,20
2017-10-17T06:26:03.574Z,25
2017-10-17T06:27:03.569Z,25
2017-10-17T06:28:03.528Z,25
2017-10-17T06:29:03.505Z,25
2017-10-17T06:30:03.166Z,25
2017-10-17T06:31:03.462Z,30
2017-10-17T06:32:03.438Z,30
2017-10-17T06:33:03.423Z,30
2017-10-17T06:34:03.079Z,30
2017-10-17T06:35:03.382Z,35
2017-10-17T06:36:03.358Z,35
2017-10-17T06:37:03.338Z,35
2017-10-17T06:38:03.348Z,35
2017-10-17T06:39:03.295Z,35
2017-10-17T06:40:03.270Z,35
2017-10-17T06:41:03.242Z,35
2017-10-17T06:42:03.213Z,35
2017-10-17T06:43:02.884Z,35
2017-10-17T06:44:03.175Z,35
2017-10-17T06:45:03.168Z,30
2017-10-17T06:46:03.142Z,35
2017-10-17T06:47:03.124Z,35
2017-10-17T06:48:03.086Z,35
2017-10-17T06:49:03.067Z,30
2017-10-17T06:50:03.046Z,35
2017-10-17T06:51:03.018Z,35
2017-10-17T06:52:02.996Z,35
2017-10-17T06:53:02.988Z,35
2017-10-17T06:54:02.978Z,40
2017-10-17T06:55:02.629Z,40
2017-10-17T06:56:02.911Z,45
2017-10-17T06:57:02.921Z,45
2017-10-17T06:58:02.872Z,50
2017-10-17T06:59:02.851Z,50
2017-10-17T07:00:02.517Z,55
2017-10-17T07:01:02.815Z,55
2017-10-17T07:02:02.781Z,60
2017-10-17T07:03:02.450Z,60
2017-10-17T07:04:02.761Z,65
2017-10-17T07:05:02.725Z,60
2017-10-17T07:06:02.400Z,60
2017-10-17T07:07:02.684Z,65
2017-10-17T07:08:02.664Z,65
2017-10-17T07:09:02.637Z,60
2017-10-17T07:10:02.614Z,65
2017-10-17T07:11:02.608Z,65
2017-10-17T07:12:02.581Z,65
2017-10-17T07:13:02.566Z,65
2017-10-17T07:14:02.528Z,65
2017-10-17T07:15:02.550Z,65
2017-10-17T07:16:02.485Z,65
2017-10-17T07:17:02.480Z,65
2017-10-17T07:18:02.468Z,70
2017-10-17T07:19:02.420Z,70
2017-10-17T07:20:02.391Z,70
2017-10-17T07:21:02.390Z,70
2017-10-17T07:22:02.357Z,75
2017-10-17T07:23:02.334Z,75
2017-10-17T07:24:02.316Z,80
2017-10-17T07:25:02.290Z,80
2017-10-17T07:26:02.270Z,80
2017-10-17T07:27:02.252Z,85
2017-10-17T07:28:02.230Z,85
2017-10-17T07:29:02.216Z,90
2017-10-17T07:30:02.187Z,90
2017-10-17T07:31:02.173Z,90
2017-10-17T07:32:02.155Z,90
2017-10-17T07:33:02.128Z,95
2017-10-17T07:34:01.790Z,95
2017-10-17T07:35:02.109Z,95
2017-10-17T07:36:02.053Z,95
2017-10-17T07:37:02.032Z,100
2017-10-17T07:38:01.706Z,100
2017-10-17T07:39:01.670Z,105
2017-10-17T07:40:01.982Z,105
2017-10-17T07:41:01.952Z,110
2017-10-17T07:42:01.932Z,110
2017-10-17T07:43:01.595Z,110
2017-10-17T07:44:01.910Z,110
2017-10-17T07:45:01.879Z,110
2017-10-17T07:46:01.858Z,115
2017-10-17T07:47:01.827Z,115
2017-10-17T07:48:01.489Z,115
2017-10-17T07:49:01.788Z,120
2017-10-17T07:50:01.771Z,120
2017-10-17T07:51:01.416Z,125
2017-10-17T07:52:01.732Z,125
2017-10-17T07:53:01.699Z,125
2017-10-17T07:54:01.361Z,130
2017-10-17T07:55:01.349Z,130
2017-10-17T07:56:01.632Z,130
2017-10-17T07:57:01.286Z,135
2017-10-17T07:58:01.605Z,140
2017-10-17T07:59:01.575Z,145
2017-10-17T08:00:01.562Z,145
2017-10-17T08:01:01.212Z,150
2017-10-17T08:02:01.530Z,155
2017-10-17T08:03:01.500Z,160
2017-10-17T08:04:01.470Z,165
2017-10-17T08:05:01.443Z,165
2017-10-17T08:06:01.424Z,170
2017-10-17T08:07:01.401Z,175
2017-10-17T08:08:01.382Z,175
2017-10-17T08:09:01.375Z,180
2017-10-17T08:10:01.340Z,185
2017-10-17T08:11:01.334Z,185
2017-10-17T08:12:01.297Z,190
2017-10-17T08:13:00.960Z,190
2017-10-17T08:14:01.263Z,190
2017-10-17T08:15:01.234Z,185
2017-10-17T08:16:01.214Z,185
2017-10-17T08:17:01.198Z,185
2017-10-17T08:18:01.176Z,185
2017-10-17T08:19:01.169Z,185
2017-10-17T08:20:01.146Z,185
2017-10-17T08:21:01.125Z,185
2017-10-17T08:22:01.096Z,185
2017-10-17T08:23:01.101Z,180
2017-10-17T08:24:01.048Z,185
2017-10-17T08:25:01.038Z,190
2017-10-17T08:26:00.689Z,190
2017-10-17T08:27:00.992Z,185
2017-10-17T08:28:00.978Z,185
2017-10-17T08:29:00.951Z,185
2017-10-17T08:30:00.924Z,185
2017-10-17T08:31:00.914Z,180
2017-10-17T08:32:00.884Z,185
2017-10-17T08:33:00.882Z,170
2017-10-17T08:34:00.863Z,165
2017-10-17T08:35:00.819Z,165
2017-10-17T08:36:00.810Z,160
2017-10-17T08:37:00.786Z,160
2017-10-17T08:38:00.760Z,160
2017-10-17T08:39:00.750Z,160
2017-10-17T08:40:00.725Z,170
2017-10-17T08:41:00.700Z,175
2017-10-17T08:42:00.678Z,185
2017-10-17T08:43:00.664Z,180
2017-10-17T08:44:00.663Z,180
2017-10-17T08:45:00.635Z,180
2017-10-17T08:46:00.615Z,180
2017-10-17T08:47:00.587Z,185
2017-10-17T08:48:00.560Z,185
2017-10-17T08:49:00.550Z,195
2017-10-17T08:50:00.521Z,200
2017-10-17T08:51:00.491Z,210
2017-10-17T08:52:00.483Z,210
2017-10-17T08:53:00.455Z,210
2017-10-17T08:54:00.443Z,210
2017-10-17T08:55:00.420Z,210
2017-10-17T08:56:00.412Z,205
2017-10-17T08:57:00.383Z,200
2017-10-17T08:58:00.410Z,200
2017-10-17T08:59:00.332Z,200
2017-10-17T08:59:59.994Z,195
2017-10-17T09:01:00.294Z,185
2017-10-17T09:02:00.282Z,190
2017-10-17T09:03:00.252Z,190
2017-10-17T09:04:00.239Z,190
2017-10-17T09:05:00.207Z,195
2017-10-17T09:06:00.192Z,185
2017-10-17T09:07:00.171Z,180
2017-10-17T09:08:00.160Z,185
2017-10-17T09:09:00.128Z,180
2017-10-17T09:10:00.115Z,180
2017-10-17T09:11:00.096Z,180
2017-10-17T09:11:59.760Z,180
2017-10-17T09:13:00.057Z,180
2017-10-17T09:14:00.042Z,180
2017-10-17T09:15:00.010Z,175
2017-10-17T09:15:59.987Z,175
2017-10-17T09:16:59.973Z,185
2017-10-17T09:17:59.959Z,190
2017-10-17T09:18:59.969Z,195
2017-10-17T09:19:59.927Z,205
2017-10-17T09:20:59.892Z,215
2017-10-17T09:21:59.893Z,210
2017-10-17T09:22:59.853Z,205
2017-10-17T09:23:59.522Z,205
2017-10-17T09:24:59.816Z,200
2017-10-17T09:25:59.800Z,205
2017-10-17T09:26:59.142Z,210
2017-10-17T09:27:59.756Z,215
2017-10-17T09:28:59.740Z,205
2017-10-17T09:29:59.392Z,210
2017-10-17T09:30:59.690Z,210
2017-10-17T09:31:59.367Z,210
2017-10-17T09:32:59.667Z,210
2017-10-17T09:33:59.632Z,195
2017-10-17T09:34:59.297Z,200
2017-10-17T09:35:59.588Z,210
2017-10-17T09:36:59.614Z,215
2017-10-17T09:37:59.548Z,215
2017-10-17T09:38:59.217Z,215
2017-10-17T09:39:59.489Z,230
2017-10-17T09:40:59.484Z,235
2017-10-17T09:41:59.467Z,240
2017-10-17T09:42:59.472Z,245
2017-10-17T09:43:59.435Z,250
2017-10-17T09:44:59.414Z,250
2017-10-17T09:45:59.400Z,245
2017-10-17T09:46:59.374Z,235
2017-10-17T09:47:59.359Z,240
2017-10-17T09:48:59.586Z,245
2017-10-17T09:49:59.318Z,250
2017-10-17T09:50:59.304Z,245
2017-10-17T09:51:59.306Z,230
2017-10-17T09:52:59.559Z,240
2017-10-17T09:53:59.492Z,240
2017-10-17T09:54:59.219Z,235
2017-10-17T09:55:59.197Z,230
2017-10-17T09:56:59.195Z,235
2017-10-17T09:57:59.157Z,240
2017-10-17T09:58:59.141Z,240
2017-10-17T09:59:59.129Z,250
2017-10-17T10:00:59.113Z,245
2017-10-17T10:01:59.086Z,230
2017-10-17T10:02:59.052Z,230
2017-10-17T10:03:59.046Z,230
2017-10-17T10:04:59.024Z,230
2017-10-17T10:05:59.001Z,230
2017-10-17T10:06:58.982Z,220
2017-10-17T10:07:58.631Z,235
2017-10-17T10:08:58.935Z,240
2017-10-17T10:09:58.913Z,245
2017-10-17T10:10:58.906Z,250
2017-10-17T10:11:58.877Z,245
2017-10-17T10:12:58.850Z,245
2017-10-17T10:13:58.851Z,245
2017-10-17T10:14:58.820Z,245
2017-10-17T10:15:58.811Z,245
2017-10-17T10:16:58.781Z,250
2017-10-17T10:17:58.763Z,255
2017-10-17T10:18:58.733Z,265
2017-10-17T10:19:58.609Z,270
2017-10-17T10:20:58.390Z,280
2017-10-17T10:21:58.696Z,280
2017-10-17T10:22:58.663Z,280
2017-10-17T10:23:58.649Z,280
2017-10-17T10:24:58.622Z,280
2017-10-17T10:25:58.595Z,280
2017-10-17T10:26:58.588Z,275
2017-10-17T10:27:58.580Z,275
2017-10-17T10:28:58.543Z,275
2017-10-17T10:29:58.208Z,275
2017-10-17T10:30:58.511Z,280
2017-10-17T10:31:58.503Z,275
2017-10-17T10:32:58.452Z,275
2017-10-17T10:33:58.435Z,270
2017-10-17T10:34:58.095Z,275
2017-10-17T10:35:58.409Z,275
2017-10-17T10:36:58.382Z,280
2017-10-17T10:37:58.040Z,280
2017-10-17T10:38:58.339Z,280
2017-10-17T10:39:58.327Z,275
2017-10-17T10:40:58.319Z,280
2017-10-17T10:41:58.288Z,275
2017-10-17T10:42:58.268Z,270
2017-10-17T10:43:58.268Z,265
2017-10-17T10:44:58.222Z,270
2017-10-17T10:45:57.889Z,270
2017-10-17T10:46:58.193Z,270
2017-10-17T10:47:58.178Z,275
2017-10-17T10:48:58.179Z,270
2017-10-17T10:49:58.140Z,270
2017-10-17T10:50:58.119Z,270
2017-10-17T10:51:58.095Z,270
2017-10-17T10:52:58.087Z,270
2017-10-17T10:53:58.050Z,270
2017-10-17T10:54:58.048Z,280
2017-10-17T10:55:58.043Z,285
2017-10-17T10:56:58.008Z,275
2017-10-17T10:57:57.971Z,265
2017-10-17T10:58:58.009Z,265
2017-10-17T10:59:57.619Z,250
2017-10-17T11:00:57.609Z,240
2017-10-17T11:01:57.585Z,235
2017-10-17T11:02:57.878Z,240
2017-10-17T11:03:57.861Z,250
2017-10-17T11:04:57.842Z,260
2017-10-17T11:05:57.507Z,250
2017-10-17T11:06:57.801Z,250
2017-10-17T11:07:57.811Z,250
2017-10-17T11:08:57.752Z,260
2017-10-17T11:09:57.736Z,265
2017-10-17T11:10:57.749Z,265
2017-10-17T11:11:57.705Z,265
2017-10-17T11:12:57.697Z,260
2017-10-17T11:13:57.673Z,255
2017-10-17T11:14:57.669Z,260
2017-10-17T11:15:57.623Z,260
2017-10-17T11:16:57.622Z,260
2017-10-17T11:17:57.589Z,265
2017-10-17T11:18:57.255Z,265
2017-10-17T11:19:57.541Z,260
2017-10-17T11:20:57.592Z,250
2017-10-17T11:21:57.195Z,250
2017-10-17T11:22:57.476Z,260
2017-10-17T11:23:57.480Z,250
2017-10-17T11:24:57.456Z,250
2017-10-17T11:25:57.436Z,250
2017-10-17T11:26:57.426Z,250
2017-10-17T11:27:57.384Z,250
2017-10-17T11:28:57.362Z,245
2017-10-17T11:29:57.355Z,220
2017-10-17T11:30:57.007Z,215
2017-10-17T11:31:57.327Z,190
2017-10-17T11:32:56.990Z,200
2017-10-17T11:33:57.270Z,200
2017-10-17T11:34:57.243Z,210
2017-10-17T11:35:57.285Z,230
2017-10-17T11:36:57.216Z,225
2017-10-17T11:37:57.241Z,220
2017-10-17T11:38:57.223Z,210
2017-10-17T11:39:57.155Z,210
2017-10-17T11:40:57.139Z,225
2017-10-17T11:41:56.792Z,230
2017-10-17T11:42:56.784Z,230
2017-10-17T11:43:57.086Z,230
2017-10-17T11:44:57.117Z,230
2017-10-17T11:45:57.033Z,230
2017-10-17T11:46:57.023Z,235
2017-10-17T11:47:57.003Z,235
2017-10-17T11:48:56.991Z,235
2017-10-17T11:49:57.011Z,235
2017-10-17T11:50:56.939Z,235
2017-10-17T11:51:56.930Z,235
2017-10-17T11:52:56.911Z,235
2017-10-17T11:53:56.895Z,240
2017-10-17T11:54:56.861Z,245
2017-10-17T11:55:56.851Z,245
2017-10-17T11:56:56.869Z,240
2017-10-17T11:57:56.808Z,240
2017-10-17T11:58:56.825Z,245
2017-10-17T11:59:56.447Z,240
2017-10-17T12:00:56.429Z,235
2017-10-17T12:01:56.406Z,235
2017-10-17T12:02:56.709Z,235
2017-10-17T12:03:56.692Z,240
2017-10-17T12:04:56.701Z,230
2017-10-17T12:05:56.326Z,235
2017-10-17T12:06:56.322Z,235
2017-10-17T12:07:56.624Z,230
2017-10-17T12:08:56.589Z,230
2017-10-17T12:09:56.562Z,230
2017-10-17T12:10:56.541Z,230
2017-10-17T12:11:56.527Z,225
2017-10-17T12:12:56.523Z,225
2017-10-17T12:13:56.532Z,225
2017-10-17T12:14:56.469Z,225
2017-10-17T12:15:56.509Z,220
2017-10-17T12:16:56.438Z,220
2017-10-17T12:17:56.407Z,215
2017-10-17T12:18:56.391Z,220
2017-10-17T12:19:56.376Z,220
2017-10-17T12:20:56.435Z,220
2017-10-17T12:21:56.331Z,220
2017-10-17T12:22:56.066Z,220
2017-10-17T12:23:56.298Z,220
2017-10-17T12:24:56.288Z,220
2017-10-17T12:25:56.251Z,220
2017-10-17T12:26:56.243Z,220
2017-10-17T12:27:56.252Z,220
2017-10-17T12:28:55.931Z,220
2017-10-17T12:29:56.174Z,215
2017-10-17T12:30:56.155Z,215
2017-10-17T12:31:56.139Z,215
2017-10-17T12:32:56.115Z,220
2017-10-17T12:33:56.120Z,215
2017-10-17T12:34:56.070Z,215
2017-10-17T12:35:56.057Z,215
2017-10-17T12:36:56.053Z,215
2017-10-17T12:37:56.023Z,215
2017-10-17T12:38:55.683Z,210
2017-10-17T12:39:55.972Z,210
2017-10-17T12:40:55.949Z,210
2017-10-17T12:41:55.936Z,210
2017-10-17T12:42:55.981Z,210
2017-10-17T12:43:55.883Z,210
2017-10-17T12:44:55.869Z,210
2017-10-17T12:45:55.550Z,210
2017-10-17T12:46:55.830Z,205
2017-10-17T12:47:55.521Z,205
2017-10-17T12:48:55.479Z,205
2017-10-17T12:49:55.776Z,205
2017-10-17T12:50:55.764Z,205
2017-10-17T12:51:55.746Z,200
2017-10-17T12:52:55.405Z,200
2017-10-17T12:53:55.715Z,200
2017-10-17T12:54:55.676Z,200
2017-10-17T12:55:55.666Z,200
2017-10-17T12:56:55.650Z,195
2017-10-17T12:57:55.617Z,195
2017-10-17T12:58:55.598Z,195
2017-10-17T12:59:55.597Z,195
2017-10-17T13:00:55.576Z,190
2017-10-17T13:01:55.546Z,190
2017-10-17T13:02:55.517Z,190
2017-10-17T13:03:55.501Z,190
2017-10-17T13:04:55.493Z,190
2017-10-17T13:05:55.515Z,185
2017-10-17T13:06:55.456Z,185
2017-10-17T13:07:55.451Z,185
2017-10-17T13:08:55.079Z,185
2017-10-17T13:09:55.381Z,180
2017-10-17T13:10:55.375Z,180
2017-10-17T13:11:55.029Z,180
2017-10-17T13:12:55.322Z,180
2017-10-17T13:13:55.303Z,180
2017-10-17T13:14:55.296Z,180
2017-10-17T13:15:55.269Z,175
2017-10-17T13:16:55.254Z,175
2017-10-17T13:17:54.904Z,175
2017-10-17T13:18:55.225Z,170
2017-10-17T13:19:54.878Z,170
2017-10-17T13:20:55.163Z,170
2017-10-17T13:21:55.161Z,170
2017-10-17T13:22:55.127Z,170
2017-10-17T13:23:55.116Z,170
2017-10-17T13:24:54.769Z,170
2017-10-17T13:25:55.086Z,165
2017-10-17T13:26:55.055Z,165
2017-10-17T13:27:55.027Z,165
2017-10-17T13:28:55.020Z,165
2017-10-17T13:29:54.666Z,165
2017-10-17T13:30:54.955Z,165
2017-10-17T13:31:54.624Z,165
2017-10-17T13:32:54.944Z,160
2017-10-17T13:33:54.901Z,155
2017-10-17T13:34:54.885Z,155
2017-10-17T13:35:54.876Z,155
2017-10-17T13:36:54.862Z,150
2017-10-17T13:37:54.545Z,155
2017-10-17T13:38:54.802Z,155
2017-10-17T13:39:54.775Z,155
2017-10-17T13:40:54.771Z,150
2017-10-17T13:41:54.752Z,150
2017-10-17T13:42:54.079Z,150
2017-10-17T13:43:54.725Z,150
2017-10-17T13:44:54.676Z,145
2017-10-17T13:45:54.666Z,145
2017-10-17T13:46:54.677Z,145
2017-10-17T13:47:54.308Z,145
2017-10-17T13:48:54.618Z,140
2017-10-17T13:49:54.271Z,140
2017-10-17T13:50:54.247Z,140
2017-10-17T13:51:54.220Z,140
2017-10-17T13:52:54.199Z,140
2017-10-17T13:53:54.502Z,140
2017-10-17T13:54:54.500Z,135
2017-10-17T13:55:54.465Z,135
2017-10-17T13:56:54.442Z,135
2017-10-17T13:57:54.425Z,135
2017-10-17T13:58:54.392Z,135
2017-10-17T13:59:54.371Z,130
2017-10-17T14:00:54.047Z,130
2017-10-17T14:01:54.336Z,130
2017-10-17T14:02:54.341Z,130
2017-10-17T14:03:54.310Z,130
2017-10-17T14:04:54.287Z,130
2017-10-17T14:05:54.260Z,125
2017-10-17T14:06:54.257Z,125
2017-10-17T14:07:54.217Z,120
2017-10-17T14:08:54.214Z,120
2017-10-17T14:09:54.199Z,120
2017-10-17T14:10:54.192Z,120
2017-10-17T14:11:54.153Z,115
2017-10-17T14:12:54.142Z,110
2017-10-17T14:13:53.798Z,110